SPJL/JUL METAR and TAF weather

Enter ICAO airport designator
Station Type Date Time Source
SPJL METAR 2020/04/06 19:00 UTC NOAA

SPJL 061900Z 14007KT 9999 SCT020 16/04 Q1035 RMK PP000


Station Type Date Time Source
SPJL Decoded METAR 2020/04/06 19:00 UTC NOAA

Juliaca, Peru (SPJL) 15-29S 070-09W 3827M
Apr 06, 2020 - 03:00 PM EDT / 2020.04.06 1900 UTC
Wind: from the SE (140 degrees) at 8 MPH (7 KT):0
Visibility: greater than 7 mile(s):0
Sky conditions: partly cloudy
Temperature: 60 F (16 C)
Dew Point: 39 F (4 C)
Relative Humidity: 44%
Pressure (altimeter): 30.56 in. Hg (1035 hPa)
ob: SPJL 061900Z 14007KT 9999 SCT020 16/04 Q1035 RMK PP000
cycle: 19

Station Type Date Time Source
SPJL TAF 2020/04/06 18:33 UTC NOAA

TAF SPJL 061700Z 0618/0718 08005KT 9999 SCT020 TX18/0619Z TN06/0710Z
FM062000 12008KT 9999 SCT018
FM062300 VRB05KT 9999 SCT013 SCT090
FM071500 05005KT 9999 SCT020 SCT100

Example: see airport list